sensor_id;sensor_type;location;lat;lon;timestamp;P1;durP1;ratioP1;P2;durP2;ratioP2
71503;SDS011;59323;50.874;7.028;2023-10-31T00:00:11;1.63;;;0.73;;
71503;SDS011;59323;50.874;7.028;2023-10-31T00:02:37;2.22;;;0.90;;
71503;SDS011;59323;50.874;7.028;2023-10-31T00:05:04;2.53;;;0.80;;
71503;SDS011;59323;50.874;7.028;2023-10-31T00:07:32;3.73;;;1.20;;
71503;SDS011;59323;50.874;7.028;2023-10-31T00:09:57;3.55;;;1.30;;
71503;SDS011;59323;50.874;7.028;2023-10-31T00:12:23;2.20;;;1.13;;
71503;SDS011;59323;50.874;7.028;2023-10-31T00:14:58;4.80;;;1.50;;
71503;SDS011;59323;50.874;7.028;2023-10-31T00:17:29;3.40;;;1.55;;
71503;SDS011;59323;50.874;7.028;2023-10-31T00:19:59;4.03;;;1.85;;
71503;SDS011;59323;50.874;7.028;2023-10-31T00:22:30;9.38;;;2.20;;
71503;SDS011;59323;50.874;7.028;2023-10-31T00:24:56;4.20;;;2.20;;
71503;SDS011;59323;50.874;7.028;2023-10-31T00:27:21;4.28;;;1.75;;
71503;SDS011;59323;50.874;7.028;2023-10-31T00:29:47;3.20;;;1.20;;
71503;SDS011;59323;50.874;7.028;2023-10-31T00:32:12;3.07;;;1.30;;
71503;SDS011;59323;50.874;7.028;2023-10-31T00:34:37;2.85;;;1.02;;
71503;SDS011;59323;50.874;7.028;2023-10-31T00:37:03;2.77;;;1.10;;
71503;SDS011;59323;50.874;7.028;2023-10-31T00:39:31;2.40;;;1.00;;
71503;SDS011;59323;50.874;7.028;2023-10-31T00:42:01;2.35;;;1.05;;
71503;SDS011;59323;50.874;7.028;2023-10-31T00:44:27;2.00;;;0.73;;
71503;SDS011;59323;50.874;7.028;2023-10-31T00:46:53;1.88;;;0.77;;
71503;SDS011;59323;50.874;7.028;2023-10-31T00:49:24;1.25;;;0.70;;
71503;SDS011;59323;50.874;7.028;2023-10-31T00:51:50;2.63;;;1.07;;
71503;SDS011;59323;50.874;7.028;2023-10-31T00:54:15;2.03;;;0.77;;
71503;SDS011;59323;50.874;7.028;2023-10-31T00:56:41;3.83;;;1.00;;
71503;SDS011;59323;50.874;7.028;2023-10-31T00:59:06;2.33;;;1.00;;
71503;SDS011;59323;50.874;7.028;2023-10-31T01:01:31;2.17;;;1.13;;
71503;SDS011;59323;50.874;7.028;2023-10-31T01:03:57;3.03;;;1.50;;
71503;SDS011;59323;50.874;7.028;2023-10-31T01:06:22;3.47;;;1.33;;
71503;SDS011;59323;50.874;7.028;2023-10-31T01:08:48;2.97;;;1.40;;
71503;SDS011;59323;50.874;7.028;2023-10-31T01:11:13;4.10;;;1.60;;
71503;SDS011;59323;50.874;7.028;2023-10-31T01:13:39;4.53;;;2.07;;
71503;SDS011;59323;50.874;7.028;2023-10-31T01:16:04;4.60;;;1.90;;
71503;SDS011;59323;50.874;7.028;2023-10-31T01:18:30;7.63;;;1.70;;
71503;SDS011;59323;50.874;7.028;2023-10-31T01:20:58;6.78;;;1.50;;
71503;SDS011;59323;50.874;7.028;2023-10-31T01:23:24;3.93;;;1.50;;
71503;SDS011;59323;50.874;7.028;2023-10-31T01:25:49;3.73;;;1.47;;
71503;SDS011;59323;50.874;7.028;2023-10-31T01:28:15;3.53;;;1.73;;
71503;SDS011;59323;50.874;7.028;2023-10-31T01:30:40;4.63;;;1.70;;
71503;SDS011;59323;50.874;7.028;2023-10-31T01:33:11;5.93;;;1.67;;
71503;SDS011;59323;50.874;7.028;2023-10-31T01:35:37;6.20;;;1.30;;
71503;SDS011;59323;50.874;7.028;2023-10-31T01:38:02;5.83;;;1.20;;
71503;SDS011;59323;50.874;7.028;2023-10-31T01:40:28;5.20;;;1.33;;
71503;SDS011;59323;50.874;7.028;2023-10-31T01:42:59;4.22;;;1.45;;
71503;SDS011;59323;50.874;7.028;2023-10-31T01:45:24;2.83;;;1.00;;
71503;SDS011;59323;50.874;7.028;2023-10-31T01:47:49;3.65;;;1.20;;
71503;SDS011;59323;50.874;7.028;2023-10-31T01:50:16;3.03;;;1.07;;
71503;SDS011;59323;50.874;7.028;2023-10-31T01:52:45;4.60;;;1.20;;
71503;SDS011;59323;50.874;7.028;2023-10-31T01:55:11;4.28;;;1.20;;
71503;SDS011;59323;50.874;7.028;2023-10-31T01:57:37;4.18;;;1.08;;
71503;SDS011;59323;50.874;7.028;2023-10-31T02:00:03;3.63;;;1.20;;
71503;SDS011;59323;50.874;7.028;2023-10-31T02:02:32;5.03;;;1.23;;
71503;SDS011;59323;50.874;7.028;2023-10-31T02:05:00;4.95;;;1.30;;
71503;SDS011;59323;50.874;7.028;2023-10-31T02:07:25;5.90;;;1.23;;
71503;SDS011;59323;50.874;7.028;2023-10-31T02:09:54;3.78;;;1.23;;
71503;SDS011;59323;50.874;7.028;2023-10-31T02:12:35;2.70;;;0.90;;
71503;SDS011;59323;50.874;7.028;2023-10-31T02:15:01;3.35;;;1.00;;
71503;SDS011;59323;50.874;7.028;2023-10-31T02:17:27;2.78;;;1.00;;
71503;SDS011;59323;50.874;7.028;2023-10-31T02:19:53;4.70;;;1.00;;
71503;SDS011;59323;50.874;7.028;2023-10-31T02:22:19;2.60;;;1.10;;
71503;SDS011;59323;50.874;7.028;2023-10-31T02:24:44;5.18;;;1.30;;
71503;SDS011;59323;50.874;7.028;2023-10-31T02:27:10;3.30;;;1.17;;
71503;SDS011;59323;50.874;7.028;2023-10-31T02:29:38;3.13;;;1.13;;
71503;SDS011;59323;50.874;7.028;2023-10-31T02:32:04;3.05;;;0.82;;
71503;SDS011;59323;50.874;7.028;2023-10-31T02:34:30;2.37;;;0.80;;
71503;SDS011;59323;50.874;7.028;2023-10-31T02:36:55;4.73;;;1.10;;
71503;SDS011;59323;50.874;7.028;2023-10-31T02:39:20;5.67;;;1.20;;
71503;SDS011;59323;50.874;7.028;2023-10-31T02:41:46;4.43;;;1.05;;
71503;SDS011;59323;50.874;7.028;2023-10-31T02:44:11;3.00;;;0.80;;
71503;SDS011;59323;50.874;7.028;2023-10-31T02:46:40;4.72;;;0.80;;
71503;SDS011;59323;50.874;7.028;2023-10-31T02:49:05;4.23;;;1.07;;
71503;SDS011;59323;50.874;7.028;2023-10-31T02:51:31;3.07;;;1.07;;
71503;SDS011;59323;50.874;7.028;2023-10-31T02:53:56;3.60;;;0.98;;
71503;SDS011;59323;50.874;7.028;2023-10-31T02:56:22;3.73;;;1.20;;
71503;SDS011;59323;50.874;7.028;2023-10-31T02:58:48;2.13;;;0.68;;
71503;SDS011;59323;50.874;7.028;2023-10-31T03:01:13;3.93;;;1.07;;
71503;SDS011;59323;50.874;7.028;2023-10-31T03:03:39;2.53;;;0.80;;
71503;SDS011;59323;50.874;7.028;2023-10-31T03:06:04;4.63;;;0.87;;
71503;SDS011;59323;50.874;7.028;2023-10-31T03:08:31;3.20;;;0.77;;
71503;SDS011;59323;50.874;7.028;2023-10-31T03:10:56;5.20;;;0.90;;
71503;SDS011;59323;50.874;7.028;2023-10-31T03:13:22;4.53;;;1.13;;
71503;SDS011;59323;50.874;7.028;2023-10-31T03:15:48;3.97;;;1.00;;
71503;SDS011;59323;50.874;7.028;2023-10-31T03:18:14;4.82;;;1.05;;
71503;SDS011;59323;50.874;7.028;2023-10-31T03:20:45;5.03;;;0.80;;
71503;SDS011;59323;50.874;7.028;2023-10-31T03:23:20;4.28;;;0.80;;
71503;SDS011;59323;50.874;7.028;2023-10-31T03:25:45;4.27;;;1.00;;
71503;SDS011;59323;50.874;7.028;2023-10-31T03:28:17;3.67;;;0.98;;
71503;SDS011;59323;50.874;7.028;2023-10-31T03:30:45;3.83;;;1.02;;
71503;SDS011;59323;50.874;7.028;2023-10-31T03:33:13;2.53;;;0.70;;
71503;SDS011;59323;50.874;7.028;2023-10-31T03:35:39;2.75;;;0.75;;
71503;SDS011;59323;50.874;7.028;2023-10-31T03:38:04;4.57;;;0.70;;
71503;SDS011;59323;50.874;7.028;2023-10-31T03:40:30;4.72;;;1.00;;
71503;SDS011;59323;50.874;7.028;2023-10-31T03:42:55;3.37;;;0.70;;
71503;SDS011;59323;50.874;7.028;2023-10-31T03:45:21;5.93;;;1.57;;
71503;SDS011;59323;50.874;7.028;2023-10-31T03:47:46;2.37;;;0.60;;
71503;SDS011;59323;50.874;7.028;2023-10-31T03:50:12;2.88;;;0.55;;
71503;SDS011;59323;50.874;7.028;2023-10-31T03:52:38;3.80;;;0.80;;
71503;SDS011;59323;50.874;7.028;2023-10-31T03:55:15;2.72;;;0.80;;
71503;SDS011;59323;50.874;7.028;2023-10-31T03:57:43;5.60;;;0.70;;
71503;SDS011;59323;50.874;7.028;2023-10-31T04:00:09;1.60;;;0.70;;
71503;SDS011;59323;50.874;7.028;2023-10-31T04:02:36;3.58;;;0.90;;
71503;SDS011;59323;50.874;7.028;2023-10-31T04:05:02;4.70;;;1.00;;
71503;SDS011;59323;50.874;7.028;2023-10-31T04:07:27;3.80;;;0.90;;
71503;SDS011;59323;50.874;7.028;2023-10-31T04:09:53;4.17;;;1.00;;
71503;SDS011;59323;50.874;7.028;2023-10-31T04:12:22;3.83;;;1.00;;
71503;SDS011;59323;50.874;7.028;2023-10-31T04:14:47;2.33;;;0.60;;
71503;SDS011;59323;50.874;7.028;2023-10-31T04:17:16;3.67;;;1.00;;
71503;SDS011;59323;50.874;7.028;2023-10-31T04:19:41;4.97;;;1.20;;
71503;SDS011;59323;50.874;7.028;2023-10-31T04:22:09;3.90;;;0.90;;
71503;SDS011;59323;50.874;7.028;2023-10-31T04:24:34;2.20;;;0.67;;
71503;SDS011;59323;50.874;7.028;2023-10-31T04:27:00;3.65;;;1.13;;
71503;SDS011;59323;50.874;7.028;2023-10-31T04:29:26;1.63;;;0.60;;
71503;SDS011;59323;50.874;7.028;2023-10-31T04:31:54;4.22;;;0.73;;
71503;SDS011;59323;50.874;7.028;2023-10-31T04:34:20;4.43;;;0.70;;
71503;SDS011;59323;50.874;7.028;2023-10-31T04:36:51;3.87;;;0.90;;
71503;SDS011;59323;50.874;7.028;2023-10-31T04:39:17;4.22;;;0.80;;
71503;SDS011;59323;50.874;7.028;2023-10-31T04:41:42;4.50;;;0.80;;
71503;SDS011;59323;50.874;7.028;2023-10-31T04:44:13;3.28;;;0.68;;
71503;SDS011;59323;50.874;7.028;2023-10-31T04:46:42;4.15;;;1.27;;
71503;SDS011;59323;50.874;7.028;2023-10-31T04:49:13;3.33;;;0.77;;
71503;SDS011;59323;50.874;7.028;2023-10-31T04:51:43;4.40;;;0.80;;
71503;SDS011;59323;50.874;7.028;2023-10-31T04:54:11;2.97;;;0.60;;
71503;SDS011;59323;50.874;7.028;2023-10-31T04:56:39;1.92;;;0.80;;
71503;SDS011;59323;50.874;7.028;2023-10-31T04:59:04;4.90;;;0.90;;
71503;SDS011;59323;50.874;7.028;2023-10-31T05:01:30;4.53;;;1.08;;
71503;SDS011;59323;50.874;7.028;2023-10-31T05:03:59;3.65;;;1.00;;
71503;SDS011;59323;50.874;7.028;2023-10-31T05:06:24;3.53;;;0.80;;
71503;SDS011;59323;50.874;7.028;2023-10-31T05:09:20;3.58;;;0.93;;
71503;SDS011;59323;50.874;7.028;2023-10-31T05:11:51;4.13;;;1.20;;
71503;SDS011;59323;50.874;7.028;2023-10-31T05:14:28;2.42;;;0.95;;
71503;SDS011;59323;50.874;7.028;2023-10-31T05:17:11;2.90;;;0.50;;
71503;SDS011;59323;50.874;7.028;2023-10-31T05:19:36;3.80;;;0.85;;
71503;SDS011;59323;50.874;7.028;2023-10-31T05:22:04;4.45;;;0.98;;
71503;SDS011;59323;50.874;7.028;2023-10-31T05:24:30;3.03;;;0.70;;
71503;SDS011;59323;50.874;7.028;2023-10-31T05:27:06;2.35;;;0.88;;
71503;SDS011;59323;50.874;7.028;2023-10-31T05:29:33;2.30;;;0.63;;
71503;SDS011;59323;50.874;7.028;2023-10-31T05:32:04;3.45;;;0.90;;
71503;SDS011;59323;50.874;7.028;2023-10-31T05:34:32;2.90;;;0.80;;
71503;SDS011;59323;50.874;7.028;2023-10-31T05:36:58;3.47;;;1.20;;
71503;SDS011;59323;50.874;7.028;2023-10-31T05:39:29;2.83;;;1.23;;
71503;SDS011;59323;50.874;7.028;2023-10-31T05:41:55;5.57;;;1.33;;
71503;SDS011;59323;50.874;7.028;2023-10-31T05:44:20;3.60;;;1.03;;
71503;SDS011;59323;50.874;7.028;2023-10-31T05:46:48;3.55;;;1.00;;
71503;SDS011;59323;50.874;7.028;2023-10-31T05:49:14;4.53;;;1.10;;
71503;SDS011;59323;50.874;7.028;2023-10-31T05:51:40;4.90;;;1.40;;
71503;SDS011;59323;50.874;7.028;2023-10-31T05:54:08;5.20;;;1.60;;
71503;SDS011;59323;50.874;7.028;2023-10-31T05:56:35;5.47;;;2.00;;
71503;SDS011;59323;50.874;7.028;2023-10-31T05:59:03;4.85;;;1.98;;
71503;SDS011;59323;50.874;7.028;2023-10-31T06:01:29;4.37;;;1.87;;
71503;SDS011;59323;50.874;7.028;2023-10-31T06:03:54;7.15;;;2.10;;
71503;SDS011;59323;50.874;7.028;2023-10-31T06:06:20;4.80;;;2.00;;
71503;SDS011;59323;50.874;7.028;2023-10-31T06:08:45;5.47;;;1.60;;
71503;SDS011;59323;50.874;7.028;2023-10-31T06:11:13;4.38;;;1.60;;
71503;SDS011;59323;50.874;7.028;2023-10-31T06:13:42;5.45;;;1.70;;
71503;SDS011;59323;50.874;7.028;2023-10-31T06:16:07;4.20;;;1.30;;
71503;SDS011;59323;50.874;7.028;2023-10-31T06:18:33;5.82;;;1.30;;
71503;SDS011;59323;50.874;7.028;2023-10-31T06:21:02;3.58;;;1.27;;
71503;SDS011;59323;50.874;7.028;2023-10-31T06:23:31;2.60;;;1.00;;
71503;SDS011;59323;50.874;7.028;2023-10-31T06:25:57;3.88;;;1.20;;
71503;SDS011;59323;50.874;7.028;2023-10-31T06:28:23;4.50;;;1.40;;
71503;SDS011;59323;50.874;7.028;2023-10-31T06:30:48;4.77;;;1.60;;
71503;SDS011;59323;50.874;7.028;2023-10-31T06:33:14;4.67;;;1.57;;
71503;SDS011;59323;50.874;7.028;2023-10-31T06:35:40;3.90;;;1.58;;
71503;SDS011;59323;50.874;7.028;2023-10-31T06:38:05;5.17;;;1.50;;
71503;SDS011;59323;50.874;7.028;2023-10-31T06:40:30;4.33;;;1.50;;
71503;SDS011;59323;50.874;7.028;2023-10-31T06:43:02;4.72;;;1.60;;
71503;SDS011;59323;50.874;7.028;2023-10-31T06:45:27;4.57;;;1.87;;
71503;SDS011;59323;50.874;7.028;2023-10-31T06:47:53;5.75;;;2.22;;
71503;SDS011;59323;50.874;7.028;2023-10-31T06:50:19;5.40;;;1.30;;
71503;SDS011;59323;50.874;7.028;2023-10-31T06:52:44;3.70;;;1.70;;
71503;SDS011;59323;50.874;7.028;2023-10-31T06:55:09;4.20;;;1.80;;
71503;SDS011;59323;50.874;7.028;2023-10-31T06:57:35;5.03;;;1.60;;
71503;SDS011;59323;50.874;7.028;2023-10-31T07:00:00;4.55;;;1.55;;
71503;SDS011;59323;50.874;7.028;2023-10-31T07:02:26;3.13;;;1.23;;
71503;SDS011;59323;50.874;7.028;2023-10-31T07:04:51;4.60;;;1.27;;
71503;SDS011;59323;50.874;7.028;2023-10-31T07:07:17;3.00;;;1.40;;
71503;SDS011;59323;50.874;7.028;2023-10-31T07:09:42;4.53;;;1.57;;
71503;SDS011;59323;50.874;7.028;2023-10-31T07:12:07;5.07;;;1.50;;
71503;SDS011;59323;50.874;7.028;2023-10-31T07:14:33;4.00;;;1.53;;
71503;SDS011;59323;50.874;7.028;2023-10-31T07:16:58;4.20;;;1.53;;
71503;SDS011;59323;50.874;7.028;2023-10-31T07:19:24;3.67;;;1.30;;
71503;SDS011;59323;50.874;7.028;2023-10-31T07:21:49;4.83;;;1.60;;
71503;SDS011;59323;50.874;7.028;2023-10-31T07:24:15;5.70;;;1.70;;
71503;SDS011;59323;50.874;7.028;2023-10-31T07:26:48;4.90;;;1.85;;
71503;SDS011;59323;50.874;7.028;2023-10-31T07:29:21;3.17;;;1.63;;
71503;SDS011;59323;50.874;7.028;2023-10-31T07:31:46;4.37;;;1.73;;
71503;SDS011;59323;50.874;7.028;2023-10-31T07:34:12;3.43;;;1.50;;
71503;SDS011;59323;50.874;7.028;2023-10-31T07:36:50;7.03;;;1.83;;
71503;SDS011;59323;50.874;7.028;2023-10-31T07:39:21;6.18;;;2.15;;
71503;SDS011;59323;50.874;7.028;2023-10-31T07:42:00;5.20;;;2.35;;
71503;SDS011;59323;50.874;7.028;2023-10-31T07:44:32;7.43;;;2.55;;
71503;SDS011;59323;50.874;7.028;2023-10-31T07:46:58;5.80;;;2.60;;
71503;SDS011;59323;50.874;7.028;2023-10-31T07:49:24;8.03;;;2.83;;
71503;SDS011;59323;50.874;7.028;2023-10-31T07:51:49;6.63;;;2.70;;
71503;SDS011;59323;50.874;7.028;2023-10-31T07:54:18;7.43;;;3.27;;
71503;SDS011;59323;50.874;7.028;2023-10-31T07:56:44;7.10;;;2.72;;
71503;SDS011;59323;50.874;7.028;2023-10-31T07:59:18;7.15;;;2.40;;
71503;SDS011;59323;50.874;7.028;2023-10-31T08:01:46;6.60;;;2.30;;
71503;SDS011;59323;50.874;7.028;2023-10-31T08:04:13;6.07;;;2.57;;
71503;SDS011;59323;50.874;7.028;2023-10-31T08:06:51;5.50;;;2.50;;
71503;SDS011;59323;50.874;7.028;2023-10-31T08:09:29;9.85;;;2.45;;
71503;SDS011;59323;50.874;7.028;2023-10-31T08:11:54;6.07;;;2.80;;
71503;SDS011;59323;50.874;7.028;2023-10-31T08:14:39;7.88;;;2.80;;
71503;SDS011;59323;50.874;7.028;2023-10-31T08:17:08;9.93;;;2.90;;
71503;SDS011;59323;50.874;7.028;2023-10-31T08:19:37;9.18;;;3.20;;
71503;SDS011;59323;50.874;7.028;2023-10-31T08:22:11;7.45;;;2.58;;
71503;SDS011;59323;50.874;7.028;2023-10-31T08:24:50;5.60;;;2.17;;
71503;SDS011;59323;50.874;7.028;2023-10-31T08:27:34;5.90;;;2.00;;
71503;SDS011;59323;50.874;7.028;2023-10-31T08:30:05;4.75;;;2.00;;
71503;SDS011;59323;50.874;7.028;2023-10-31T08:32:34;4.88;;;1.90;;
71503;SDS011;59323;50.874;7.028;2023-10-31T08:35:05;9.52;;;2.30;;
71503;SDS011;59323;50.874;7.028;2023-10-31T08:37:37;5.60;;;2.10;;
71503;SDS011;59323;50.874;7.028;2023-10-31T08:40:11;4.60;;;1.90;;
71503;SDS011;59323;50.874;7.028;2023-10-31T08:42:36;5.43;;;2.10;;
71503;SDS011;59323;50.874;7.028;2023-10-31T08:45:07;5.73;;;2.20;;
71503;SDS011;59323;50.874;7.028;2023-10-31T08:47:51;5.40;;;2.13;;
71503;SDS011;59323;50.874;7.028;2023-10-31T08:50:30;5.95;;;2.15;;
71503;SDS011;59323;50.874;7.028;2023-10-31T08:53:02;6.10;;;2.33;;
71503;SDS011;59323;50.874;7.028;2023-10-31T08:55:27;6.70;;;1.85;;
71503;SDS011;59323;50.874;7.028;2023-10-31T08:57:55;3.77;;;1.70;;
71503;SDS011;59323;50.874;7.028;2023-10-31T09:00:29;4.63;;;2.03;;
71503;SDS011;59323;50.874;7.028;2023-10-31T09:03:07;6.68;;;2.10;;
71503;SDS011;59323;50.874;7.028;2023-10-31T09:05:39;6.13;;;2.10;;
71503;SDS011;59323;50.874;7.028;2023-10-31T09:08:05;8.68;;;1.70;;
71503;SDS011;59323;50.874;7.028;2023-10-31T09:10:32;3.88;;;1.45;;
71503;SDS011;59323;50.874;7.028;2023-10-31T09:13:04;4.43;;;1.65;;
71503;SDS011;59323;50.874;7.028;2023-10-31T09:15:42;3.70;;;1.35;;
71503;SDS011;59323;50.874;7.028;2023-10-31T09:18:09;3.47;;;1.50;;
71503;SDS011;59323;50.874;7.028;2023-10-31T09:20:37;5.25;;;1.60;;
71503;SDS011;59323;50.874;7.028;2023-10-31T09:23:03;3.60;;;1.40;;
71503;SDS011;59323;50.874;7.028;2023-10-31T09:25:28;3.27;;;1.10;;
71503;SDS011;59323;50.874;7.028;2023-10-31T09:27:55;5.00;;;1.25;;
71503;SDS011;59323;50.874;7.028;2023-10-31T09:30:29;5.13;;;1.40;;
71503;SDS011;59323;50.874;7.028;2023-10-31T09:33:00;5.47;;;1.00;;
71503;SDS011;59323;50.874;7.028;2023-10-31T09:35:26;4.53;;;1.20;;
71503;SDS011;59323;50.874;7.028;2023-10-31T09:37:54;4.78;;;1.10;;
71503;SDS011;59323;50.874;7.028;2023-10-31T09:40:22;4.47;;;1.20;;
71503;SDS011;59323;50.874;7.028;2023-10-31T09:42:54;3.10;;;1.10;;
71503;SDS011;59323;50.874;7.028;2023-10-31T09:45:20;4.72;;;1.05;;
71503;SDS011;59323;50.874;7.028;2023-10-31T09:47:45;4.43;;;1.37;;
71503;SDS011;59323;50.874;7.028;2023-10-31T09:50:11;3.67;;;1.10;;
71503;SDS011;59323;50.874;7.028;2023-10-31T09:52:37;2.77;;;1.07;;
71503;SDS011;59323;50.874;7.028;2023-10-31T09:55:08;3.97;;;1.00;;
71503;SDS011;59323;50.874;7.028;2023-10-31T09:57:39;8.02;;;0.80;;
71503;SDS011;59323;50.874;7.028;2023-10-31T10:00:05;2.85;;;0.80;;
71503;SDS011;59323;50.874;7.028;2023-10-31T10:02:33;3.93;;;0.60;;
71503;SDS011;59323;50.874;7.028;2023-10-31T10:04:59;2.63;;;0.60;;
71503;SDS011;59323;50.874;7.028;2023-10-31T10:07:27;2.90;;;0.73;;
71503;SDS011;59323;50.874;7.028;2023-10-31T10:09:52;3.30;;;0.80;;
71503;SDS011;59323;50.874;7.028;2023-10-31T10:12:27;3.75;;;0.88;;
71503;SDS011;59323;50.874;7.028;2023-10-31T10:14:56;4.80;;;0.60;;
71503;SDS011;59323;50.874;7.028;2023-10-31T10:17:30;2.47;;;0.70;;
71503;SDS011;59323;50.874;7.028;2023-10-31T10:20:07;5.70;;;0.70;;
71503;SDS011;59323;50.874;7.028;2023-10-31T10:22:42;2.90;;;0.70;;
71503;SDS011;59323;50.874;7.028;2023-10-31T10:25:08;2.20;;;0.70;;
71503;SDS011;59323;50.874;7.028;2023-10-31T10:27:39;2.00;;;0.43;;
71503;SDS011;59323;50.874;7.028;2023-10-31T10:30:06;3.55;;;0.50;;
71503;SDS011;59323;50.874;7.028;2023-10-31T10:32:35;4.90;;;0.60;;
71503;SDS011;59323;50.874;7.028;2023-10-31T10:35:04;1.77;;;0.60;;
71503;SDS011;59323;50.874;7.028;2023-10-31T10:37:38;1.95;;;0.70;;
71503;SDS011;59323;50.874;7.028;2023-10-31T10:40:08;1.43;;;0.60;;
71503;SDS011;59323;50.874;7.028;2023-10-31T10:42:47;1.75;;;0.70;;
71503;SDS011;59323;50.874;7.028;2023-10-31T10:45:21;2.72;;;0.52;;
71503;SDS011;59323;50.874;7.028;2023-10-31T10:47:49;1.83;;;0.50;;
71503;SDS011;59323;50.874;7.028;2023-10-31T10:50:19;2.43;;;0.60;;
71503;SDS011;59323;50.874;7.028;2023-10-31T10:53:03;1.80;;;0.50;;
71503;SDS011;59323;50.874;7.028;2023-10-31T10:56:03;2.70;;;0.80;;
71503;SDS011;59323;50.874;7.028;2023-10-31T10:58:37;2.72;;;1.00;;
71503;SDS011;59323;50.874;7.028;2023-10-31T11:01:12;6.10;;;0.98;;
71503;SDS011;59323;50.874;7.028;2023-10-31T11:03:41;2.30;;;0.70;;
71503;SDS011;59323;50.874;7.028;2023-10-31T11:06:07;3.42;;;0.73;;
71503;SDS011;59323;50.874;7.028;2023-10-31T11:08:32;2.95;;;0.60;;
71503;SDS011;59323;50.874;7.028;2023-10-31T11:11:07;3.97;;;1.00;;
71503;SDS011;59323;50.874;7.028;2023-10-31T11:13:35;3.87;;;0.90;;
71503;SDS011;59323;50.874;7.028;2023-10-31T11:16:07;3.75;;;0.90;;
71503;SDS011;59323;50.874;7.028;2023-10-31T11:18:37;5.88;;;1.10;;
71503;SDS011;59323;50.874;7.028;2023-10-31T11:21:03;5.07;;;1.05;;
71503;SDS011;59323;50.874;7.028;2023-10-31T11:23:31;3.37;;;0.90;;
71503;SDS011;59323;50.874;7.028;2023-10-31T11:25:57;5.55;;;1.10;;
71503;SDS011;59323;50.874;7.028;2023-10-31T11:28:30;3.25;;;1.20;;
71503;SDS011;59323;50.874;7.028;2023-10-31T11:31:03;5.18;;;1.00;;
71503;SDS011;59323;50.874;7.028;2023-10-31T11:33:29;2.75;;;1.02;;
71503;SDS011;59323;50.874;7.028;2023-10-31T11:36:01;3.03;;;0.70;;
71503;SDS011;59323;50.874;7.028;2023-10-31T11:38:35;2.95;;;0.80;;
71503;SDS011;59323;50.874;7.028;2023-10-31T11:41:05;2.88;;;0.88;;
71503;SDS011;59323;50.874;7.028;2023-10-31T11:46:05;3.30;;;0.80;;
71503;SDS011;59323;50.874;7.028;2023-10-31T11:48:49;2.87;;;0.70;;
71503;SDS011;59323;50.874;7.028;2023-10-31T11:51:27;8.20;;;1.40;;
71503;SDS011;59323;50.874;7.028;2023-10-31T11:53:52;4.15;;;1.30;;
71503;SDS011;59323;50.874;7.028;2023-10-31T11:56:28;2.27;;;0.70;;
71503;SDS011;59323;50.874;7.028;2023-10-31T11:59:03;5.88;;;0.95;;
71503;SDS011;59323;50.874;7.028;2023-10-31T12:01:44;3.78;;;0.90;;
71503;SDS011;59323;50.874;7.028;2023-10-31T12:04:20;2.88;;;0.88;;
71503;SDS011;59323;50.874;7.028;2023-10-31T12:06:56;3.22;;;0.80;;
71503;SDS011;59323;50.874;7.028;2023-10-31T12:09:25;1.80;;;0.80;;
71503;SDS011;59323;50.874;7.028;2023-10-31T12:11:51;2.05;;;0.82;;
71503;SDS011;59323;50.874;7.028;2023-10-31T12:14:19;2.42;;;0.98;;
71503;SDS011;59323;50.874;7.028;2023-10-31T12:16:48;4.47;;;0.93;;
71503;SDS011;59323;50.874;7.028;2023-10-31T12:19:14;7.90;;;1.57;;
71503;SDS011;59323;50.874;7.028;2023-10-31T12:24:16;6.53;;;1.20;;
71503;SDS011;59323;50.874;7.028;2023-10-31T12:26:43;6.32;;;1.00;;
71503;SDS011;59323;50.874;7.028;2023-10-31T12:29:14;3.05;;;0.60;;
71503;SDS011;59323;50.874;7.028;2023-10-31T12:31:44;2.60;;;0.80;;
71503;SDS011;59323;50.874;7.028;2023-10-31T12:34:21;2.72;;;0.80;;
71503;SDS011;59323;50.874;7.028;2023-10-31T12:36:49;2.65;;;0.50;;
71503;SDS011;59323;50.874;7.028;2023-10-31T12:39:20;3.83;;;0.63;;
71503;SDS011;59323;50.874;7.028;2023-10-31T12:42:04;3.83;;;0.90;;
71503;SDS011;59323;50.874;7.028;2023-10-31T12:44:29;3.63;;;0.87;;
71503;SDS011;59323;50.874;7.028;2023-10-31T12:47:02;5.75;;;1.00;;
71503;SDS011;59323;50.874;7.028;2023-10-31T12:49:35;2.38;;;0.60;;
71503;SDS011;59323;50.874;7.028;2023-10-31T12:52:04;3.50;;;0.83;;
71503;SDS011;59323;50.874;7.028;2023-10-31T12:54:33;3.63;;;0.70;;
71503;SDS011;59323;50.874;7.028;2023-10-31T12:57:03;2.78;;;0.80;;
71503;SDS011;59323;50.874;7.028;2023-10-31T12:59:31;3.45;;;0.70;;
71503;SDS011;59323;50.874;7.028;2023-10-31T13:02:16;4.03;;;0.63;;
71503;SDS011;59323;50.874;7.028;2023-10-31T13:04:45;5.83;;;0.70;;
71503;SDS011;59323;50.874;7.028;2023-10-31T13:07:32;2.58;;;0.73;;
71503;SDS011;59323;50.874;7.028;2023-10-31T13:10:01;2.58;;;0.60;;
71503;SDS011;59323;50.874;7.028;2023-10-31T13:12:26;2.27;;;0.70;;
71503;SDS011;59323;50.874;7.028;2023-10-31T13:14:55;2.58;;;0.80;;
71503;SDS011;59323;50.874;7.028;2023-10-31T13:17:21;4.63;;;1.20;;
71503;SDS011;59323;50.874;7.028;2023-10-31T13:19:55;5.10;;;0.70;;
71503;SDS011;59323;50.874;7.028;2023-10-31T13:22:25;3.72;;;0.95;;
71503;SDS011;59323;50.874;7.028;2023-10-31T13:24:54;3.72;;;0.90;;
71503;SDS011;59323;50.874;7.028;2023-10-31T13:27:19;3.30;;;0.60;;
71503;SDS011;59323;50.874;7.028;2023-10-31T13:29:47;2.15;;;0.50;;
71503;SDS011;59323;50.874;7.028;2023-10-31T13:32:15;3.38;;;1.00;;
71503;SDS011;59323;50.874;7.028;2023-10-31T13:34:41;2.60;;;0.90;;
71503;SDS011;59323;50.874;7.028;2023-10-31T13:37:06;3.80;;;0.60;;
71503;SDS011;59323;50.874;7.028;2023-10-31T13:39:38;4.43;;;1.03;;
71503;SDS011;59323;50.874;7.028;2023-10-31T13:42:20;1.65;;;0.50;;
71503;SDS011;59323;50.874;7.028;2023-10-31T13:44:46;4.33;;;0.77;;
71503;SDS011;59323;50.874;7.028;2023-10-31T13:47:12;2.88;;;0.60;;
71503;SDS011;59323;50.874;7.028;2023-10-31T13:49:41;3.95;;;0.85;;
71503;SDS011;59323;50.874;7.028;2023-10-31T13:52:09;2.47;;;0.80;;
71503;SDS011;59323;50.874;7.028;2023-10-31T13:54:37;1.73;;;0.70;;
71503;SDS011;59323;50.874;7.028;2023-10-31T13:57:17;3.58;;;0.80;;
71503;SDS011;59323;50.874;7.028;2023-10-31T14:00:08;4.32;;;1.00;;
71503;SDS011;59323;50.874;7.028;2023-10-31T14:02:43;3.50;;;0.70;;
71503;SDS011;59323;50.874;7.028;2023-10-31T14:05:16;2.90;;;0.60;;
71503;SDS011;59323;50.874;7.028;2023-10-31T14:07:42;2.08;;;0.70;;
71503;SDS011;59323;50.874;7.028;2023-10-31T14:10:10;3.53;;;0.88;;
71503;SDS011;59323;50.874;7.028;2023-10-31T14:12:36;3.80;;;0.70;;
71503;SDS011;59323;50.874;7.028;2023-10-31T14:15:04;8.13;;;1.45;;
71503;SDS011;59323;50.874;7.028;2023-10-31T14:17:30;5.50;;;0.70;;
71503;SDS011;59323;50.874;7.028;2023-10-31T14:19:56;3.73;;;0.90;;
71503;SDS011;59323;50.874;7.028;2023-10-31T14:22:21;1.95;;;0.63;;
71503;SDS011;59323;50.874;7.028;2023-10-31T14:24:52;4.10;;;0.70;;
71503;SDS011;59323;50.874;7.028;2023-10-31T14:27:17;2.50;;;0.80;;
71503;SDS011;59323;50.874;7.028;2023-10-31T14:29:46;4.70;;;1.03;;
71503;SDS011;59323;50.874;7.028;2023-10-31T14:32:14;4.20;;;0.80;;
71503;SDS011;59323;50.874;7.028;2023-10-31T14:34:39;5.50;;;1.00;;
71503;SDS011;59323;50.874;7.028;2023-10-31T14:37:10;5.75;;;0.98;;
71503;SDS011;59323;50.874;7.028;2023-10-31T14:39:36;4.53;;;0.80;;
71503;SDS011;59323;50.874;7.028;2023-10-31T14:42:01;3.77;;;1.03;;
71503;SDS011;59323;50.874;7.028;2023-10-31T14:44:32;6.07;;;1.33;;
71503;SDS011;59323;50.874;7.028;2023-10-31T14:46:58;4.60;;;0.87;;
71503;SDS011;59323;50.874;7.028;2023-10-31T14:49:26;2.85;;;0.88;;
71503;SDS011;59323;50.874;7.028;2023-10-31T14:51:51;4.80;;;0.90;;
71503;SDS011;59323;50.874;7.028;2023-10-31T14:54:17;5.20;;;0.93;;
71503;SDS011;59323;50.874;7.028;2023-10-31T14:56:46;5.33;;;1.00;;
71503;SDS011;59323;50.874;7.028;2023-10-31T14:59:14;6.75;;;1.45;;
71503;SDS011;59323;50.874;7.028;2023-10-31T15:01:40;3.73;;;0.83;;